createdAt,value
2019-04-03T00:00:54.600Z,15.00
2019-04-03T00:03:21.031Z,16.30
2019-04-03T00:05:47.408Z,19.27
2019-04-03T00:08:13.981Z,17.27
2019-04-03T00:10:40.730Z,17.03
2019-04-03T00:13:07.242Z,17.10
2019-04-03T00:15:33.914Z,16.07
2019-04-03T00:18:00.524Z,16.50
2019-04-03T00:20:26.869Z,19.77
2019-04-03T00:22:53.347Z,16.67
2019-04-03T00:25:20.605Z,17.90
2019-04-03T00:27:48.478Z,17.53
2019-04-03T00:30:15.140Z,18.07
2019-04-03T00:32:41.607Z,18.50
2019-04-03T00:35:08.183Z,17.10
2019-04-03T00:37:34.741Z,19.30
2019-04-03T00:40:01.132Z,17.63
2019-04-03T00:42:27.711Z,19.50
2019-04-03T00:44:54.712Z,16.37
2019-04-03T00:47:21.447Z,16.23
2019-04-03T00:49:48.134Z,16.93
2019-04-03T00:52:14.799Z,15.73
2019-04-03T00:54:41.157Z,17.60
2019-04-03T00:57:07.527Z,19.83
2019-04-03T00:59:34.091Z,22.10
2019-04-03T01:02:00.550Z,18.43
2019-04-03T01:04:28.781Z,19.47
2019-04-03T01:06:56.820Z,17.43
2019-04-03T01:09:23.912Z,19.30
2019-04-03T01:11:50.420Z,18.77
2019-04-03T01:14:16.768Z,21.00
2019-04-03T01:16:43.196Z,18.87
2019-04-03T01:19:09.546Z,20.27
2019-04-03T01:21:37.240Z,18.23
2019-04-03T01:24:04.215Z,17.03
2019-04-03T01:26:30.591Z,16.00
2019-04-03T01:28:57.105Z,19.63
2019-04-03T01:31:23.551Z,17.33
2019-04-03T01:33:50.068Z,17.77
2019-04-03T01:36:17.592Z,16.87
2019-04-03T01:38:44.709Z,15.80
2019-04-03T01:41:11.168Z,16.63
2019-04-03T01:43:37.575Z,17.60
2019-04-03T01:46:04.131Z,15.83
2019-04-03T01:48:30.504Z,16.07
2019-04-03T01:50:59.222Z,16.00
2019-04-03T01:53:25.459Z,18.13
2019-04-03T01:55:51.936Z,15.17
2019-04-03T01:58:18.411Z,16.93
2019-04-03T02:00:44.807Z,15.37
2019-04-03T02:03:11.284Z,16.37
2019-04-03T02:05:37.851Z,18.10
2019-04-03T02:08:04.241Z,16.27
2019-04-03T02:10:30.899Z,18.83
2019-04-03T02:12:57.348Z,18.73
2019-04-03T02:15:23.976Z,16.47
2019-04-03T02:17:50.417Z,22.07
2019-04-03T02:20:17.091Z,16.50
2019-04-03T02:22:43.560Z,18.47
2019-04-03T02:25:10.111Z,20.23
2019-04-03T02:27:36.491Z,18.97
2019-04-03T02:30:04.470Z,21.60
2019-04-03T02:32:30.945Z,19.30
2019-04-03T02:34:57.421Z,17.90
2019-04-03T02:37:24.170Z,16.30
2019-04-03T02:39:50.746Z,18.37
2019-04-03T02:42:17.201Z,18.53
2019-04-03T02:44:43.768Z,17.90
2019-04-03T02:47:10.214Z,17.17
2019-04-03T02:49:36.777Z,14.60
2019-04-03T02:52:03.433Z,16.30
2019-04-03T02:54:30.062Z,20.40
2019-04-03T02:56:57.113Z,19.23
2019-04-03T02:59:25.973Z,19.33
2019-04-03T03:01:52.111Z,17.77
2019-04-03T03:04:20.461Z,17.70
2019-04-03T03:06:47.178Z,18.47
2019-04-03T03:09:14.269Z,18.20
2019-04-03T03:11:41.344Z,18.60
2019-04-03T03:14:08.331Z,20.10
2019-04-03T03:16:34.968Z,17.20
2019-04-03T03:19:01.882Z,19.10
2019-04-03T03:21:29.509Z,17.33
2019-04-03T03:23:57.149Z,17.27
2019-04-03T03:26:23.825Z,16.63
2019-04-03T03:28:50.527Z,16.40
2019-04-03T03:31:17.388Z,16.57
2019-04-03T03:33:45.338Z,18.00
2019-04-03T03:36:20.125Z,16.10
2019-04-03T03:38:40.877Z,17.63
2019-04-03T03:41:07.757Z,17.33
2019-04-03T03:43:37.264Z,15.43
2019-04-03T03:46:03.174Z,13.83
2019-04-03T03:48:30.310Z,17.83
2019-04-03T03:50:58.565Z,18.00
2019-04-03T03:53:26.641Z,15.67
2019-04-03T03:55:56.847Z,17.97
2019-04-03T03:58:21.648Z,18.00
2019-04-03T04:00:51.674Z,18.73
2019-04-03T04:03:16.589Z,20.83
2019-04-03T04:05:43.047Z,18.37
2019-04-03T04:08:10.882Z,18.23
2019-04-03T04:10:37.791Z,17.37
2019-04-03T04:13:04.276Z,18.63
2019-04-03T04:15:31.813Z,15.93
2019-04-03T04:17:58.419Z,15.87
2019-04-03T04:20:24.982Z,18.27
2019-04-03T04:22:51.679Z,18.63
2019-04-03T04:25:18.189Z,17.60
2019-04-03T04:27:44.943Z,17.80
2019-04-03T04:30:13.352Z,19.20
2019-04-03T04:32:39.803Z,18.80
2019-04-03T04:35:06.372Z,17.97
2019-04-03T04:37:32.728Z,23.00
2019-04-03T04:39:59.680Z,18.60
2019-04-03T04:42:26.770Z,16.37
2019-04-03T04:44:53.150Z,26.57
2019-04-03T04:47:19.518Z,17.70
2019-04-03T04:49:46.104Z,18.37
2019-04-03T04:52:12.559Z,17.33
2019-04-03T04:54:38.926Z,16.50
2019-04-03T04:57:08.258Z,18.10
2019-04-03T04:59:36.316Z,19.63
2019-04-03T05:02:02.542Z,18.77
2019-04-03T05:04:29.128Z,17.87
2019-04-03T05:06:55.483Z,18.37
2019-04-03T05:09:22.287Z,17.20
2019-04-03T05:11:48.866Z,17.80
2019-04-03T05:14:15.807Z,20.77
2019-04-03T05:16:43.718Z,18.43
2019-04-03T05:19:17.421Z,18.77
2019-04-03T05:21:38.695Z,16.43
2019-04-03T05:24:11.458Z,16.80
2019-04-03T05:26:33.708Z,19.37
2019-04-03T05:29:00.204Z,18.73
2019-04-03T05:31:26.775Z,16.47
2019-04-03T05:33:53.329Z,19.50
2019-04-03T05:36:19.812Z,19.73
2019-04-03T05:38:46.376Z,19.40
2019-04-03T05:41:12.875Z,17.97
2019-04-03T05:43:39.227Z,19.70
2019-04-03T05:46:06.316Z,16.00
2019-04-03T05:48:32.746Z,18.60
2019-04-03T05:50:59.416Z,14.90
2019-04-03T05:53:25.975Z,17.53
2019-04-03T05:55:52.345Z,16.73
2019-04-03T05:58:18.798Z,19.70
2019-04-03T06:00:45.271Z,18.77
2019-04-03T06:03:11.830Z,16.50
2019-04-03T06:05:38.195Z,16.63
2019-04-03T06:08:04.819Z,16.50
2019-04-03T06:10:32.335Z,14.90
2019-04-03T06:12:59.515Z,16.10
2019-04-03T06:15:26.152Z,13.33
2019-04-03T06:17:54.670Z,18.30
2019-04-03T06:20:21.109Z,14.07
2019-04-03T06:22:49.272Z,16.00
2019-04-03T06:25:15.876Z,18.17
2019-04-03T06:27:45.520Z,15.90
2019-04-03T06:30:11.867Z,17.50
2019-04-03T06:32:38.428Z,14.87
2019-04-03T06:35:05.270Z,15.40
2019-04-03T06:37:31.947Z,17.37
2019-04-03T06:39:58.387Z,14.03
2019-04-03T06:42:25.333Z,14.17
2019-04-03T06:44:53.609Z,12.83
2019-04-03T06:47:20.184Z,15.30
2019-04-03T06:49:46.552Z,17.10
2019-04-03T06:52:13.332Z,14.90
2019-04-03T06:54:39.771Z,12.37
2019-04-03T06:57:06.509Z,13.37
2019-04-03T06:59:33.026Z,14.77
2019-04-03T07:01:59.604Z,12.87
2019-04-03T07:04:26.161Z,13.77
2019-04-03T07:06:55.350Z,13.90
2019-04-03T07:09:24.019Z,12.47
2019-04-03T07:11:49.299Z,14.70
2019-04-03T07:14:15.890Z,11.57
2019-04-03T07:16:42.342Z,11.93
2019-04-03T07:19:09.019Z,13.30
2019-04-03T07:21:35.699Z,11.17
2019-04-03T07:24:02.285Z,10.30
2019-04-03T07:26:28.952Z,11.03
2019-04-03T07:28:55.395Z,9.53
2019-04-03T07:31:24.323Z,10.75
2019-04-03T07:33:50.601Z,8.05
2019-04-03T07:36:17.068Z,8.08
2019-04-03T07:38:43.435Z,5.58
2019-04-03T07:41:09.995Z,6.72
2019-04-03T07:43:36.774Z,5.42
2019-04-03T07:46:03.947Z,4.30
2019-04-03T07:48:33.043Z,5.40
2019-04-03T07:50:58.890Z,7.53
2019-04-03T07:53:25.395Z,4.12
2019-04-03T07:55:51.959Z,5.22
2019-04-03T07:58:18.690Z,5.05
2019-04-03T08:00:45.341Z,5.28
2019-04-03T08:03:12.066Z,4.42
2019-04-03T08:05:38.607Z,7.37
2019-04-03T08:08:05.286Z,5.20
2019-04-03T08:10:31.887Z,4.10
2019-04-03T08:13:00.136Z,5.05
2019-04-03T08:15:27.121Z,5.78
2019-04-03T08:17:54.647Z,6.37
2019-04-03T08:20:22.003Z,5.08
2019-04-03T08:22:48.374Z,4.45
2019-04-03T08:25:14.723Z,4.55
2019-04-03T08:27:41.281Z,4.58
2019-04-03T08:30:08.806Z,4.40
2019-04-03T08:32:35.615Z,4.37
2019-04-03T08:35:04.522Z,3.40
2019-04-03T08:37:32.298Z,3.72
2019-04-03T08:39:59.625Z,3.80
2019-04-03T08:42:27.755Z,3.50
2019-04-03T08:44:54.648Z,4.87
2019-04-03T08:47:21.237Z,3.90
2019-04-03T08:49:47.707Z,3.33
2019-04-03T08:52:14.986Z,3.58
2019-04-03T08:54:42.218Z,4.83
2019-04-03T08:57:09.246Z,3.40
2019-04-03T08:59:36.048Z,4.80
2019-04-03T09:02:03.032Z,4.70
2019-04-03T09:04:29.774Z,3.75
2019-04-03T09:06:56.356Z,5.25
2019-04-03T09:09:22.961Z,3.80
2019-04-03T09:11:49.556Z,4.00
2019-04-03T09:14:16.246Z,4.37
2019-04-03T09:16:44.269Z,4.03
2019-04-03T09:19:10.909Z,4.45
2019-04-03T09:21:37.539Z,7.55
2019-04-03T09:24:04.109Z,4.95
2019-04-03T09:26:34.520Z,5.28
2019-04-03T09:28:59.355Z,5.50
2019-04-03T09:31:26.196Z,4.28
2019-04-03T09:33:52.692Z,6.90
2019-04-03T09:36:19.261Z,4.37
2019-04-03T09:38:46.039Z,4.28
2019-04-03T09:41:12.503Z,4.55
2019-04-03T09:43:40.013Z,4.20
2019-04-03T09:46:06.730Z,5.62
2019-04-03T09:48:33.209Z,4.28
2019-04-03T09:50:59.597Z,3.67
2019-04-03T09:53:26.748Z,4.03
2019-04-03T09:55:53.417Z,3.90
2019-04-03T09:58:19.754Z,3.98
2019-04-03T10:00:46.348Z,3.42
2019-04-03T10:03:12.878Z,3.08
2019-04-03T10:05:39.378Z,2.92
2019-04-03T10:08:08.419Z,4.80
2019-04-03T10:10:34.199Z,5.65
2019-04-03T10:13:00.887Z,3.75
2019-04-03T10:15:27.338Z,4.90
2019-04-03T10:17:53.703Z,3.52
2019-04-03T10:20:20.705Z,4.40
2019-04-03T10:22:47.406Z,4.10
2019-04-03T10:25:13.959Z,3.92
2019-04-03T10:27:42.529Z,6.40
2019-04-03T10:30:10.866Z,4.70
2019-04-03T10:32:37.391Z,4.03
2019-04-03T10:35:07.285Z,3.60
2019-04-03T10:37:33.723Z,5.50
2019-04-03T10:40:00.256Z,3.98
2019-04-03T10:42:26.927Z,4.20
2019-04-03T10:44:53.479Z,4.25
2019-04-03T10:47:24.686Z,4.78
2019-04-03T10:49:48.343Z,4.22
2019-04-03T10:52:15.163Z,4.33
2019-04-03T10:54:41.654Z,5.00
2019-04-03T10:57:08.111Z,4.95
2019-04-03T10:59:35.959Z,4.75
2019-04-03T11:02:02.614Z,11.40
2019-04-03T11:04:29.075Z,5.60
2019-04-03T11:06:55.735Z,4.85
2019-04-03T11:09:22.374Z,5.42
2019-04-03T11:11:48.858Z,5.17
2019-04-03T11:14:16.186Z,4.80
2019-04-03T11:16:45.936Z,5.10
2019-04-03T11:19:11.188Z,6.00
2019-04-03T11:21:37.823Z,7.70
2019-04-03T11:24:05.899Z,4.97
2019-04-03T11:26:32.598Z,4.70
2019-04-03T11:28:59.560Z,5.08
2019-04-03T11:31:28.790Z,4.75
2019-04-03T11:33:54.913Z,4.75
2019-04-03T11:36:23.302Z,5.05
2019-04-03T11:38:50.183Z,5.33
2019-04-03T11:41:19.592Z,4.97
2019-04-03T11:43:45.173Z,5.50
2019-04-03T11:46:11.682Z,4.70
2019-04-03T11:48:38.104Z,5.90
2019-04-03T11:51:04.663Z,5.28
2019-04-03T11:53:31.080Z,4.90
2019-04-03T11:55:57.560Z,5.20
2019-04-03T11:58:24.370Z,4.42
2019-04-03T12:00:52.290Z,5.05
2019-04-03T12:03:18.738Z,5.72
2019-04-03T12:05:45.754Z,5.78
2019-04-03T12:08:13.748Z,5.15
2019-04-03T12:10:40.589Z,4.45
2019-04-03T12:13:07.233Z,4.80
2019-04-03T12:15:34.741Z,5.30
2019-04-03T12:18:02.482Z,5.50
2019-04-03T12:20:29.472Z,5.90
2019-04-03T12:22:55.943Z,6.00
2019-04-03T12:25:22.657Z,6.60
2019-04-03T12:27:49.487Z,5.42
2019-04-03T12:30:16.159Z,5.67
2019-04-03T12:32:47.496Z,6.35
2019-04-03T12:35:11.741Z,5.78
2019-04-03T12:37:38.296Z,5.65
2019-04-03T12:40:05.259Z,5.22
2019-04-03T12:42:31.668Z,5.10
2019-04-03T12:44:58.334Z,6.75
2019-04-03T12:47:27.227Z,6.00
2019-04-03T12:49:54.001Z,5.72
2019-04-03T12:52:21.162Z,6.33
2019-04-03T12:54:48.747Z,5.67
2019-04-03T12:57:15.982Z,5.58
2019-04-03T12:59:42.511Z,5.58
2019-04-03T13:02:09.396Z,5.90
2019-04-03T13:04:35.852Z,6.20
2019-04-03T13:07:05.107Z,6.55
2019-04-03T13:09:30.774Z,7.30
2019-04-03T13:11:57.347Z,6.00
2019-04-03T13:14:26.427Z,5.83
2019-04-03T13:16:52.102Z,5.37
2019-04-03T13:19:18.892Z,6.00
2019-04-03T13:21:45.314Z,7.50
2019-04-03T13:24:12.545Z,5.78
2019-04-03T13:26:39.199Z,6.62
2019-04-03T13:29:08.597Z,6.42
2019-04-03T13:31:34.224Z,6.17
2019-04-03T13:34:00.599Z,5.03
2019-04-03T13:36:27.145Z,5.83
2019-04-03T13:38:53.625Z,6.05
2019-04-03T13:41:20.179Z,6.50
2019-04-03T13:43:47.075Z,6.08
2019-04-03T13:46:13.472Z,7.53
2019-04-03T13:48:40.052Z,5.87
2019-04-03T13:51:06.487Z,7.25
2019-04-03T13:53:33.035Z,6.28
2019-04-03T13:55:59.428Z,8.28
2019-04-03T13:58:27.908Z,6.28
2019-04-03T14:01:01.374Z,6.85
2019-04-03T14:03:23.150Z,6.08
2019-04-03T14:05:50.183Z,6.35
2019-04-03T14:08:16.668Z,7.08
2019-04-03T14:10:43.025Z,6.37
2019-04-03T14:13:11.851Z,7.62
2019-04-03T14:15:37.853Z,6.60
2019-04-03T14:18:07.855Z,6.15
2019-04-03T14:20:34.405Z,7.45
2019-04-03T14:23:03.999Z,5.80
2019-04-03T14:25:35.138Z,6.92
2019-04-03T14:27:57.521Z,6.65
2019-04-03T14:30:24.024Z,5.70
2019-04-03T14:32:53.348Z,6.53
2019-04-03T14:35:44.353Z,5.83
2019-04-03T14:37:47.604Z,7.60
2019-04-03T14:40:14.459Z,6.85
2019-04-03T14:42:41.006Z,6.47
2019-04-03T14:45:08.057Z,7.15
2019-04-03T14:47:34.605Z,6.78
2019-04-03T14:50:02.766Z,9.25
2019-04-03T14:52:29.632Z,6.95
2019-04-03T14:54:58.133Z,6.90
2019-04-03T14:57:24.509Z,6.37
2019-04-03T14:59:50.959Z,7.50
2019-04-03T15:02:17.310Z,7.20
2019-04-03T15:04:43.797Z,9.83
2019-04-03T15:07:10.857Z,8.98
2019-04-03T15:09:37.759Z,7.15
2019-04-03T15:12:05.847Z,8.70
2019-04-03T15:14:32.608Z,8.13
2019-04-03T15:16:59.174Z,7.50
2019-04-03T15:19:25.928Z,7.53
2019-04-03T15:21:52.779Z,7.20
2019-04-03T15:24:19.828Z,7.60
2019-04-03T15:26:46.778Z,7.08
2019-04-03T15:29:13.319Z,7.95
2019-04-03T15:31:40.252Z,7.47
2019-04-03T15:34:06.645Z,9.88
2019-04-03T15:36:36.239Z,7.97
2019-04-03T15:39:01.635Z,7.78
2019-04-03T15:41:31.151Z,9.80
2019-04-03T15:43:56.717Z,9.00
2019-04-03T15:46:23.638Z,7.20
2019-04-03T15:48:53.468Z,9.90
2019-04-03T15:51:19.733Z,8.28
2019-04-03T15:53:46.234Z,10.05
2019-04-03T15:56:13.532Z,8.30
2019-04-03T15:58:40.060Z,7.90
2019-04-03T16:01:07.908Z,7.60
2019-04-03T16:03:35.437Z,9.58
2019-04-03T16:06:03.474Z,9.83
2019-04-03T16:08:30.223Z,10.58
2019-04-03T16:10:58.821Z,8.63
2019-04-03T16:13:25.164Z,10.38
2019-04-03T16:15:54.662Z,9.03
2019-04-03T16:18:21.209Z,9.30
2019-04-03T16:20:49.055Z,10.10
2019-04-03T16:23:16.103Z,9.65
2019-04-03T16:25:42.523Z,9.33
2019-04-03T16:28:09.003Z,8.88
2019-04-03T16:30:35.569Z,12.23
2019-04-03T16:33:08.958Z,9.38
2019-04-03T16:35:36.084Z,10.32
2019-04-03T16:38:02.547Z,9.38
2019-04-03T16:40:31.231Z,11.93
2019-04-03T16:42:57.884Z,10.60
2019-04-03T16:45:24.469Z,8.95
2019-04-03T16:47:50.853Z,9.10
2019-04-03T16:50:17.646Z,10.45
2019-04-03T16:52:46.801Z,12.10
2019-04-03T16:55:13.821Z,8.68
2019-04-03T16:57:41.683Z,11.93
2019-04-03T17:00:11.223Z,12.55
2019-04-03T17:02:37.736Z,11.97
2019-04-03T17:05:05.131Z,8.55
2019-04-03T17:07:31.602Z,8.85
2019-04-03T17:09:58.204Z,8.35
2019-04-03T17:12:24.654Z,9.28
2019-04-03T17:14:54.979Z,7.70
2019-04-03T17:17:22.510Z,7.45
2019-04-03T17:19:51.367Z,7.47
2019-04-03T17:22:17.654Z,8.88
2019-04-03T17:24:48.560Z,9.55
2019-04-03T17:27:12.984Z,8.38
2019-04-03T17:29:39.540Z,9.55
2019-04-03T17:32:08.632Z,6.00
2019-04-03T17:34:37.103Z,7.42
2019-04-03T17:37:03.174Z,5.10
2019-04-03T17:39:29.684Z,6.25
2019-04-03T17:41:56.159Z,6.17
2019-04-03T17:44:22.523Z,5.62
2019-04-03T17:46:49.547Z,6.90
2019-04-03T17:49:16.083Z,7.10
2019-04-03T17:51:42.583Z,5.83
2019-04-03T17:54:09.031Z,6.10
2019-04-03T17:56:35.719Z,8.65
2019-04-03T17:59:02.432Z,5.33
2019-04-03T18:01:29.005Z,7.05
2019-04-03T18:03:55.463Z,7.50
2019-04-03T18:06:22.049Z,5.10
2019-04-03T18:08:48.403Z,6.60
2019-04-03T18:11:14.889Z,9.18
2019-04-03T18:13:41.237Z,10.93
2019-04-03T18:16:07.826Z,11.97
2019-04-03T18:18:34.219Z,9.30
2019-04-03T18:21:00.821Z,18.90
2019-04-03T18:23:27.269Z,7.87
2019-04-03T18:25:53.630Z,8.17
2019-04-03T18:28:21.109Z,7.50
2019-04-03T18:30:47.578Z,5.27
2019-04-03T18:33:16.614Z,5.17
2019-04-03T18:35:42.517Z,4.30
2019-04-03T18:38:09.083Z,5.30
2019-04-03T18:40:35.556Z,5.83
2019-04-03T18:43:02.044Z,5.10
2019-04-03T18:45:28.496Z,3.60
2019-04-03T18:47:54.914Z,3.73
2019-04-03T18:50:21.383Z,3.53
2019-04-03T18:52:48.047Z,3.40
2019-04-03T18:55:14.781Z,3.27
2019-04-03T18:57:41.312Z,3.10
2019-04-03T19:00:08.194Z,3.33
2019-04-03T19:02:35.246Z,4.53
2019-04-03T19:05:02.709Z,3.20
2019-04-03T19:07:29.226Z,4.07
2019-04-03T19:10:06.489Z,3.30
2019-04-03T19:12:34.982Z,4.00
2019-04-03T19:14:52.597Z,3.13
2019-04-03T19:17:18.986Z,2.70
2019-04-03T19:19:45.453Z,3.83
2019-04-03T19:22:11.954Z,3.50
2019-04-03T19:24:38.312Z,4.53
2019-04-03T19:27:04.804Z,2.83
2019-04-03T19:29:31.492Z,2.80
2019-04-03T19:31:57.881Z,3.83
2019-04-03T19:34:24.524Z,2.87
2019-04-03T19:36:51.086Z,2.77
2019-04-03T19:39:17.540Z,2.67
2019-04-03T19:41:44.035Z,3.30
2019-04-03T19:44:10.583Z,2.23
2019-04-03T19:46:36.971Z,3.53
2019-04-03T19:49:03.441Z,2.83
2019-04-03T19:51:29.812Z,2.77
2019-04-03T19:53:59.479Z,3.27
2019-04-03T19:56:25.971Z,3.17
2019-04-03T19:58:52.995Z,2.13
2019-04-03T20:01:19.472Z,2.33
2019-04-03T20:03:45.861Z,2.60
2019-04-03T20:06:12.403Z,2.17
2019-04-03T20:08:38.794Z,2.10
2019-04-03T20:11:05.754Z,2.37
2019-04-03T20:13:32.223Z,2.50
2019-04-03T20:15:58.793Z,2.00
2019-04-03T20:18:25.897Z,2.93
2019-04-03T20:20:52.979Z,1.90
2019-04-03T20:23:19.398Z,1.80
2019-04-03T20:25:46.504Z,1.73
2019-04-03T20:28:13.097Z,1.87
2019-04-03T20:30:39.518Z,1.80
2019-04-03T20:33:05.980Z,1.90
2019-04-03T20:35:32.333Z,2.23
2019-04-03T20:37:58.796Z,2.10
2019-04-03T20:40:25.258Z,1.73
2019-04-03T20:42:51.754Z,1.87
2019-04-03T20:45:19.184Z,2.00
2019-04-03T20:47:46.071Z,1.93
2019-04-03T20:50:12.739Z,1.37
2019-04-03T20:52:41.174Z,1.87
2019-04-03T20:55:07.664Z,1.50
2019-04-03T20:57:34.144Z,1.57
2019-04-03T21:00:03.265Z,2.10
2019-04-03T21:02:29.095Z,2.73
2019-04-03T21:04:55.578Z,2.53
2019-04-03T21:07:23.960Z,1.60
2019-04-03T21:09:50.434Z,2.33
2019-04-03T21:12:16.899Z,1.57
2019-04-03T21:14:43.250Z,2.80
2019-04-03T21:17:09.727Z,1.77
2019-04-03T21:19:36.171Z,2.10
2019-04-03T21:22:02.623Z,5.67
2019-04-03T21:24:29.114Z,1.60
2019-04-03T21:26:55.564Z,2.20
2019-04-03T21:29:22.015Z,1.60
2019-04-03T21:31:48.576Z,2.07
2019-04-03T21:34:15.036Z,2.83
2019-04-03T21:36:41.401Z,1.83
2019-04-03T21:39:07.771Z,1.97
2019-04-03T21:41:34.132Z,2.50
2019-04-03T21:44:00.625Z,2.63
2019-04-03T21:46:26.990Z,2.07
2019-04-03T21:48:53.359Z,3.97
2019-04-03T21:51:20.884Z,2.20
2019-04-03T21:53:47.803Z,1.93
2019-04-03T21:56:14.168Z,1.90
2019-04-03T21:58:40.627Z,2.00
2019-04-03T22:01:09.106Z,2.10
2019-04-03T22:03:35.504Z,2.40
2019-04-03T22:06:02.171Z,2.20
2019-04-03T22:08:29.052Z,2.33
2019-04-03T22:10:56.191Z,2.47
2019-04-03T22:13:22.662Z,3.63
2019-04-03T22:15:49.017Z,2.23
2019-04-03T22:18:15.400Z,2.07
2019-04-03T22:20:41.854Z,1.93
2019-04-03T22:23:08.231Z,2.27
2019-04-03T22:25:35.895Z,2.43
2019-04-03T22:28:02.371Z,2.53
2019-04-03T22:30:28.984Z,3.30
2019-04-03T22:32:55.835Z,2.93
2019-04-03T22:35:23.007Z,2.33
2019-04-03T22:37:49.594Z,2.20
2019-04-03T22:40:16.047Z,2.37
2019-04-03T22:42:45.398Z,3.47
2019-04-03T22:45:10.982Z,2.23
2019-04-03T22:47:37.436Z,2.40
2019-04-03T22:50:05.585Z,2.63
2019-04-03T22:52:32.260Z,2.87
2019-04-03T22:54:58.830Z,2.50
2019-04-03T22:57:25.384Z,2.63
2019-04-03T22:59:54.429Z,3.03
2019-04-03T23:02:20.183Z,2.43
2019-04-03T23:04:46.785Z,2.83
2019-04-03T23:07:13.239Z,2.97
2019-04-03T23:09:39.630Z,4.10
2019-04-03T23:12:06.113Z,4.23
2019-04-03T23:14:32.585Z,3.10
2019-04-03T23:16:59.149Z,4.83
2019-04-03T23:19:25.719Z,3.10
2019-04-03T23:21:52.905Z,3.50
2019-04-03T23:24:20.462Z,2.67
2019-04-03T23:26:46.934Z,3.53
2019-04-03T23:29:13.361Z,3.27
2019-04-03T23:31:39.721Z,3.13
2019-04-03T23:34:06.202Z,3.20
2019-04-03T23:36:32.553Z,3.00
2019-04-03T23:38:58.928Z,3.23
2019-04-03T23:41:25.556Z,3.60
2019-04-03T23:43:52.027Z,3.30
2019-04-03T23:46:18.377Z,4.17
2019-04-03T23:48:44.783Z,4.03
2019-04-03T23:51:22.562Z,4.67
2019-04-03T23:53:39.491Z,3.33
2019-04-03T23:56:07.328Z,3.20
2019-04-03T23:58:34.358Z,3.87
